Time;durP1;ratioP1;P1;durP2;ratioP2;P2;SDS_P1;SDS_P2;PMS_P1;PMS_P2;Temp;Humidity;BMP_temperature;BMP_pressure;BME280_temperature;BME280_humidity;BME280_pressure;Samples;Min_cycle;Max_cycle;Signal;HPM_P1;HPM_P2
2023/10/28 00:02:00;;;;;;;3.23;2.57;;;12.10;99.90;;;;;;5054165;28;20493;-57
2023/10/28 00:04:27;;;;;;;13.70;3.10;;;12.10;99.90;;;;;;5054063;28;20843;-57
2023/10/28 00:06:54;;;;;;;7.53;2.43;;;12.10;99.90;;;;;;5054229;28;20448;-57
2023/10/28 00:09:22;;;;;;;5.93;2.87;;;12.10;99.90;;;;;;5053914;28;20954;-57
2023/10/28 00:11:48;;;;;;;8.37;3.10;;;12.20;99.90;;;;;;5053763;28;20873;-57
2023/10/28 00:14:17;;;;;;;7.70;2.30;;;12.20;99.90;;;;;;5054050;28;20889;-57
2023/10/28 00:16:44;;;;;;;9.10;3.10;;;12.20;99.90;;;;;;5054085;28;20445;-57
2023/10/28 00:19:10;;;;;;;4.93;2.20;;;12.20;99.90;;;;;;5053762;28;20485;-57
2023/10/28 00:21:37;;;;;;;6.83;3.10;;;12.30;99.90;;;;;;5052930;28;20500;-57
2023/10/28 00:24:04;;;;;;;9.03;2.63;;;12.30;99.90;;;;;;5053877;28;20441;-57
2023/10/28 00:26:32;;;;;;;10.97;3.27;;;12.30;99.90;;;;;;5053997;28;20446;-57
2023/10/28 00:28:59;;;;;;;9.50;2.67;;;12.30;99.90;;;;;;5053850;28;20441;-57
2023/10/28 00:31:28;;;;;;;10.33;2.40;;;12.30;99.90;;;;;;5053744;28;20899;-57
2023/10/28 00:33:55;;;;;;;10.50;2.63;;;12.30;99.90;;;;;;5053344;28;20568;-57
2023/10/28 00:36:21;;;;;;;10.57;2.77;;;12.30;99.90;;;;;;5053683;28;20442;-57
2023/10/28 00:38:48;;;;;;;4.90;2.60;;;12.30;99.90;;;;;;5053692;28;20866;-57
2023/10/28 00:41:17;;;;;;;6.10;2.20;;;12.30;99.90;;;;;;5053258;28;20469;-58
2023/10/28 00:43:47;;;;;;;5.50;2.10;;;12.30;99.90;;;;;;5053538;28;20438;-58
2023/10/28 00:46:14;;;;;;;4.07;2.60;;;12.40;99.90;;;;;;5053289;28;20926;-58
2023/10/28 00:48:41;;;;;;;7.50;2.40;;;12.40;99.90;;;;;;5053259;28;20476;-58
2023/10/28 00:51:08;;;;;;;6.47;2.60;;;12.40;99.90;;;;;;5053415;28;20470;-57
2023/10/28 00:53:36;;;;;;;6.30;2.07;;;12.40;99.90;;;;;;5053348;28;20535;-57
2023/10/28 00:56:03;;;;;;;10.57;2.33;;;12.50;99.90;;;;;;5053409;28;20449;-57
2023/10/28 00:58:31;;;;;;;2.90;1.87;;;12.50;99.90;;;;;;5053333;28;20446;-57
2023/10/28 01:00:59;;;;;;;7.40;1.70;;;12.50;99.90;;;;;;5052988;28;21057;-58
2023/10/28 01:03:28;;;;;;;9.10;2.27;;;12.50;99.90;;;;;;5052890;28;20970;-58
2023/10/28 01:05:55;;;;;;;8.13;2.20;;;12.50;99.90;;;;;;5052957;28;20445;-58
2023/10/28 01:08:22;;;;;;;6.10;2.60;;;12.60;99.90;;;;;;5053195;28;20452;-58
2023/10/28 01:10:48;;;;;;;4.90;2.00;;;12.60;99.90;;;;;;5053158;28;20473;-58
2023/10/28 01:13:15;;;;;;;10.57;2.37;;;12.60;99.90;;;;;;5053178;28;20504;-58
2023/10/28 01:15:42;;;;;;;4.67;1.50;;;12.60;99.90;;;;;;5053199;28;20472;-58
2023/10/28 01:18:11;;;;;;;7.30;1.87;;;12.50;99.90;;;;;;5053223;28;20445;-58
2023/10/28 01:20:37;;;;;;;6.53;2.00;;;12.50;99.90;;;;;;5053280;28;20493;-57
2023/10/28 01:23:06;;;;;;;12.63;3.63;;;12.50;99.90;;;;;;5053370;28;20437;-58
2023/10/28 01:25:32;;;;;;;10.30;2.20;;;12.50;99.90;;;;;;5052940;28;20955;-58
2023/10/28 01:27:59;;;;;;;4.23;1.90;;;12.50;99.90;;;;;;5053186;28;20467;-57
2023/10/28 01:30:26;;;;;;;3.33;2.20;;;12.40;99.90;;;;;;5053131;28;20809;-57
2023/10/28 01:32:53;;;;;;;7.80;2.53;;;12.30;99.90;;;;;;5054943;28;21065;-57
2023/10/28 01:35:20;;;;;;;7.37;2.40;;;12.30;99.90;;;;;;5057117;28;20450;-57
2023/10/28 01:37:47;;;;;;;4.27;2.20;;;12.30;99.90;;;;;;5056730;28;20940;-57
2023/10/28 01:40:17;;;;;;;7.20;2.43;;;12.30;99.90;;;;;;5057091;28;20924;-57
2023/10/28 01:42:45;;;;;;;5.27;2.70;;;12.30;99.90;;;;;;5057047;28;20453;-58
2023/10/28 01:45:13;;;;;;;9.83;1.87;;;12.30;99.90;;;;;;5056834;28;20473;-57
2023/10/28 01:47:41;;;;;;;10.23;2.00;;;12.30;99.90;;;;;;5056584;28;20936;-57
2023/10/28 01:50:11;;;;;;;3.03;2.03;;;12.30;99.90;;;;;;5056829;28;20445;-59
2023/10/28 01:52:39;;;;;;;3.13;1.50;;;12.30;99.90;;;;;;5056929;28;20491;-58
2023/10/28 01:55:07;;;;;;;4.80;1.40;;;12.30;99.90;;;;;;5056351;28;20857;-58
2023/10/28 01:57:35;;;;;;;3.40;1.50;;;12.30;99.90;;;;;;5056694;28;20445;-58
2023/10/28 02:00:06;;;;;;;6.13;2.30;;;12.30;99.90;;;;;;5056791;28;20441;-59
2023/10/28 02:02:34;;;;;;;8.73;1.40;;;12.30;99.90;;;;;;5056603;28;20462;-58
2023/10/28 02:05:01;;;;;;;6.83;1.30;;;12.30;99.90;;;;;;5056494;28;20456;-58
2023/10/28 02:07:28;;;;;;;6.17;1.43;;;12.20;99.90;;;;;;5056321;28;20445;-58
2023/10/28 02:09:54;;;;;;;2.77;1.57;;;12.30;99.90;;;;;;5056482;28;20480;-58
2023/10/28 02:12:21;;;;;;;5.90;1.53;;;12.20;99.90;;;;;;5056406;28;20472;-58
2023/10/28 02:14:50;;;;;;;3.90;1.67;;;12.20;99.90;;;;;;5056274;28;20539;-58
2023/10/28 02:17:17;;;;;;;3.00;1.40;;;12.20;99.90;;;;;;5056363;28;20449;-58
2023/10/28 02:19:44;;;;;;;5.20;1.70;;;12.30;99.90;;;;;;5056248;28;20445;-58
2023/10/28 02:22:10;;;;;;;2.80;1.20;;;12.20;99.90;;;;;;5056215;28;20864;-58
2023/10/28 02:24:37;;;;;;;5.00;1.40;;;12.10;99.90;;;;;;5055822;28;20934;-58
2023/10/28 02:27:04;;;;;;;8.10;1.60;;;12.20;99.90;;;;;;5055833;28;20528;-58
2023/10/28 02:29:31;;;;;;;8.30;1.47;;;12.20;99.90;;;;;;5055790;28;20456;-58
2023/10/28 02:31:59;;;;;;;4.33;1.30;;;12.10;99.90;;;;;;5055692;28;20476;-58
2023/10/28 02:34:26;;;;;;;4.97;1.43;;;12.10;99.90;;;;;;5055933;28;20484;-58
2023/10/28 02:36:52;;;;;;;5.70;1.50;;;12.20;99.90;;;;;;5056042;28;20475;-58
2023/10/28 02:39:19;;;;;;;4.20;1.40;;;12.20;99.90;;;;;;5055941;28;20450;-58
2023/10/28 02:41:46;;;;;;;3.53;1.60;;;12.20;99.90;;;;;;5055826;28;20488;-58
2023/10/28 02:44:13;;;;;;;8.20;1.50;;;12.20;99.90;;;;;;5055201;28;20532;-58
2023/10/28 02:46:39;;;;;;;4.73;1.37;;;12.10;99.90;;;;;;5055873;28;20438;-58
2023/10/28 02:49:07;;;;;;;1.70;1.20;;;12.10;99.90;;;;;;5055862;28;20449;-58
2023/10/28 02:51:34;;;;;;;2.37;1.27;;;12.10;99.90;;;;;;5055700;28;20465;-58
2023/10/28 02:54:01;;;;;;;2.07;0.87;;;12.10;99.90;;;;;;5055525;28;20504;-58
2023/10/28 02:56:28;;;;;;;2.83;0.73;;;12.20;99.90;;;;;;5055573;28;20540;-58
2023/10/28 02:58:55;;;;;;;3.23;1.20;;;12.10;99.90;;;;;;5055248;28;20485;-58
2023/10/28 03:01:22;;;;;;;2.40;1.00;;;12.10;99.90;;;;;;5055099;28;20859;-58
2023/10/28 03:03:49;;;;;;;3.90;1.63;;;12.10;99.90;;;;;;5055123;28;20948;-58
2023/10/28 03:06:17;;;;;;;1.10;0.90;;;12.10;99.90;;;;;;5055071;28;20442;-58
2023/10/28 03:08:43;;;;;;;2.03;1.40;;;12.10;99.90;;;;;;5055866;28;20441;-58
2023/10/28 03:11:10;;;;;;;1.80;1.10;;;12.20;99.90;;;;;;5055330;28;20465;-58
2023/10/28 03:13:37;;;;;;;2.93;1.43;;;12.20;99.90;;;;;;5055091;28;20485;-58
2023/10/28 03:16:04;;;;;;;3.37;1.20;;;12.20;99.90;;;;;;5055214;28;20437;-58
2023/10/28 03:18:31;;;;;;;4.60;1.20;;;12.20;99.90;;;;;;5055188;28;20474;-58
2023/10/28 03:20:58;;;;;;;7.10;1.60;;;12.30;99.90;;;;;;5055054;28;20581;-58
2023/10/28 03:23:26;;;;;;;2.67;1.10;;;12.20;99.90;;;;;;5055149;28;20457;-58
2023/10/28 03:25:53;;;;;;;2.30;1.20;;;12.20;99.90;;;;;;5055107;28;20442;-58
2023/10/28 03:28:20;;;;;;;1.90;1.20;;;12.20;99.90;;;;;;5054978;28;20487;-58
2023/10/28 03:30:46;;;;;;;1.60;1.07;;;12.20;99.90;;;;;;5054905;28;20462;-59
2023/10/28 03:33:13;;;;;;;2.20;0.80;;;12.20;99.90;;;;;;5054873;28;20468;-58
2023/10/28 03:35:40;;;;;;;5.60;1.63;;;12.20;99.90;;;;;;5055000;28;20453;-58
2023/10/28 03:38:06;;;;;;;3.60;1.33;;;12.10;99.90;;;;;;5054650;28;20526;-58
2023/10/28 03:40:34;;;;;;;3.07;1.63;;;12.10;99.90;;;;;;5054675;28;20464;-58
2023/10/28 03:43:01;;;;;;;1.67;1.20;;;12.10;99.90;;;;;;5054885;28;20449;-58
2023/10/28 03:45:28;;;;;;;3.80;1.30;;;12.00;99.90;;;;;;5054750;28;20442;-58
2023/10/28 03:47:54;;;;;;;3.47;1.53;;;12.00;99.90;;;;;;5054844;28;20446;-58
2023/10/28 03:50:21;;;;;;;4.40;1.00;;;11.90;99.90;;;;;;5054381;28;20496;-58
2023/10/28 03:52:48;;;;;;;3.67;1.17;;;11.90;99.90;;;;;;5054344;28;20950;-59
2023/10/28 03:55:14;;;;;;;4.80;1.40;;;11.90;99.90;;;;;;5054014;28;20481;-58
2023/10/28 03:57:43;;;;;;;7.53;1.57;;;11.90;99.90;;;;;;5054045;28;20499;-58
2023/10/28 04:00:11;;;;;;;2.27;1.03;;;11.90;99.90;;;;;;5054073;28;20974;-58
2023/10/28 04:02:38;;;;;;;4.00;1.17;;;11.90;99.90;;;;;;5054383;28;20469;-59
2023/10/28 04:05:04;;;;;;;0.90;0.80;;;11.90;99.90;;;;;;5054218;28;20480;-59
2023/10/28 04:07:32;;;;;;;6.00;1.33;;;11.90;99.90;;;;;;5053974;28;20940;-59
2023/10/28 04:10:03;;;;;;;4.07;1.20;;;11.90;99.90;;;;;;5054228;28;20532;-58
2023/10/28 04:12:31;;;;;;;6.10;1.90;;;11.90;99.90;;;;;;5054197;28;20491;-58
2023/10/28 04:14:59;;;;;;;5.90;1.40;;;11.90;99.90;;;;;;5053936;28;20508;-58
2023/10/28 04:17:30;;;;;;;5.73;1.10;;;11.90;99.90;;;;;;5054019;28;20438;-58
2023/10/28 04:19:57;;;;;;;3.47;1.10;;;11.90;99.90;;;;;;5054036;28;20430;-58
2023/10/28 04:22:24;;;;;;;6.97;1.53;;;11.80;99.90;;;;;;5053893;28;20556;-58
2023/10/28 04:24:51;;;;;;;6.53;1.53;;;11.80;99.90;;;;;;5053923;28;20811;-58
2023/10/28 04:27:17;;;;;;;3.23;1.27;;;11.80;99.90;;;;;;5053928;28;20438;-59
2023/10/28 04:29:45;;;;;;;3.83;1.00;;;11.90;99.90;;;;;;5054267;28;20441;-58
2023/10/28 04:32:13;;;;;;;4.43;1.00;;;11.80;99.90;;;;;;5053993;28;20478;-59
2023/10/28 04:34:40;;;;;;;4.13;0.90;;;11.80;99.90;;;;;;5054005;28;20477;-59
2023/10/28 04:37:07;;;;;;;4.40;0.80;;;11.80;99.90;;;;;;5053924;28;20830;-58
2023/10/28 04:39:34;;;;;;;4.53;1.20;;;11.80;99.90;;;;;;5053822;28;20818;-58
2023/10/28 04:42:00;;;;;;;7.33;1.50;;;11.80;99.90;;;;;;5053735;28;20466;-58
2023/10/28 04:44:27;;;;;;;2.57;1.17;;;11.80;99.90;;;;;;5053624;28;20441;-58
2023/10/28 04:46:54;;;;;;;3.30;1.30;;;11.80;99.90;;;;;;5053588;28;20445;-58
2023/10/28 04:49:22;;;;;;;4.00;0.97;;;11.80;99.90;;;;;;5053319;28;20453;-58
2023/10/28 04:51:48;;;;;;;2.13;1.93;;;11.80;99.90;;;;;;5053526;28;20461;-59
2023/10/28 04:54:15;;;;;;;3.17;0.93;;;11.80;99.90;;;;;;5053348;28;20844;-58
2023/10/28 04:56:41;;;;;;;2.97;0.90;;;11.80;99.90;;;;;;5053095;28;20962;-58
2023/10/28 04:59:10;;;;;;;3.73;1.40;;;11.90;99.90;;;;;;5053402;28;20959;-58
2023/10/28 05:01:36;;;;;;;1.53;1.10;;;11.90;99.90;;;;;;5053337;28;20470;-58
2023/10/28 05:04:03;;;;;;;2.57;1.40;;;11.80;99.90;;;;;;5053299;28;20468;-58
2023/10/28 05:06:31;;;;;;;6.37;1.10;;;11.80;99.90;;;;;;5053132;28;20442;-59
2023/10/28 05:08:58;;;;;;;2.57;1.20;;;11.80;99.90;;;;;;5053214;28;20503;-58
2023/10/28 05:11:25;;;;;;;4.20;1.10;;;11.80;99.90;;;;;;5053280;28;20461;-58
2023/10/28 05:13:52;;;;;;;4.63;1.50;;;11.70;99.90;;;;;;5053092;28;20531;-58
2023/10/28 05:16:19;;;;;;;6.00;1.83;;;11.70;99.90;;;;;;5053303;28;20540;-58
2023/10/28 05:18:46;;;;;;;2.40;1.13;;;11.70;99.90;;;;;;5053257;28;20848;-58
2023/10/28 05:21:14;;;;;;;2.40;1.20;;;11.70;99.90;;;;;;5053110;28;20504;-58
2023/10/28 05:23:42;;;;;;;6.77;0.90;;;11.60;99.90;;;;;;5052828;28;20853;-58
2023/10/28 05:26:09;;;;;;;2.73;1.23;;;11.70;99.90;;;;;;5053070;28;20449;-58
2023/10/28 05:28:36;;;;;;;4.33;0.60;;;11.80;99.90;;;;;;5053207;28;20445;-58
2023/10/28 05:31:03;;;;;;;1.37;1.10;;;11.70;99.90;;;;;;5053050;28;20556;-59
2023/10/28 05:33:30;;;;;;;2.80;0.70;;;11.80;99.90;;;;;;5053008;28;20515;-58
2023/10/28 05:35:57;;;;;;;5.27;1.10;;;11.80;99.90;;;;;;5052898;28;21018;-58
2023/10/28 05:38:23;;;;;;;0.87;0.80;;;11.90;99.90;;;;;;5052722;28;20935;-58
2023/10/28 05:40:50;;;;;;;0.93;0.57;;;11.90;99.90;;;;;;5052913;28;20487;-58
2023/10/28 05:43:18;;;;;;;2.63;0.83;;;11.90;99.90;;;;;;5052701;28;20952;-58
2023/10/28 05:45:44;;;;;;;2.80;1.10;;;11.80;99.90;;;;;;5052889;28;20454;-58
2023/10/28 05:48:11;;;;;;;2.40;1.00;;;11.90;99.90;;;;;;5052997;28;20445;-58
2023/10/28 05:50:38;;;;;;;2.30;1.00;;;11.90;99.90;;;;;;5052520;28;20849;-58
2023/10/28 05:53:05;;;;;;;1.87;0.80;;;11.90;99.90;;;;;;5052930;28;20438;-59
2023/10/28 05:55:32;;;;;;;1.43;0.77;;;11.90;99.90;;;;;;5052846;28;20477;-58
2023/10/28 05:58:00;;;;;;;2.13;0.87;;;11.90;99.90;;;;;;5052793;28;20469;-58
2023/10/28 06:00:28;;;;;;;0.70;0.70;;;11.90;99.90;;;;;;5052423;28;20940;-58
2023/10/28 06:02:55;;;;;;;1.23;1.10;;;11.90;99.90;;;;;;5052492;28;20441;-58
2023/10/28 06:05:23;;;;;;;0.70;0.70;;;11.90;99.90;;;;;;5052814;28;20426;-58
2023/10/28 06:07:50;;;;;;;2.93;1.20;;;11.90;99.90;;;;;;5052808;28;20821;-58
2023/10/28 06:10:17;;;;;;;3.80;1.03;;;11.80;99.90;;;;;;5052667;28;20579;-59
2023/10/28 06:12:43;;;;;;;2.00;0.87;;;11.70;99.90;;;;;;5052418;28;20442;-58
2023/10/28 06:15:14;;;;;;;2.50;0.93;;;11.70;99.90;;;;;;5052512;28;20527;-58
2023/10/28 06:17:40;;;;;;;1.13;0.70;;;11.70;99.90;;;;;;5052755;28;20462;-58
2023/10/28 06:20:08;;;;;;;1.83;1.73;;;11.80;99.90;;;;;;5055006;28;20445;-58
2023/10/28 06:22:35;;;;;;;1.50;1.00;;;11.70;99.90;;;;;;5055834;28;21009;-58
2023/10/28 06:25:04;;;;;;;0.83;0.83;;;11.70;99.90;;;;;;5056185;28;20433;-58
2023/10/28 06:27:31;;;;;;;2.27;1.13;;;11.70;99.90;;;;;;5055852;28;20833;-58
2023/10/28 06:29:57;;;;;;;3.73;2.13;;;11.80;99.90;;;;;;5056078;28;20507;-58
2023/10/28 06:32:27;;;;;;;1.43;0.90;;;11.70;99.90;;;;;;5055841;28;20872;-59
2023/10/28 06:34:54;;;;;;;3.53;1.60;;;11.80;99.90;;;;;;5055898;28;20485;-58
2023/10/28 06:37:21;;;;;;;4.60;1.00;;;11.80;99.90;;;;;;5055949;28;20519;-58
2023/10/28 06:39:48;;;;;;;4.10;1.37;;;11.70;99.90;;;;;;5055899;28;20449;-58
2023/10/28 06:42:14;;;;;;;6.37;1.10;;;11.70;99.90;;;;;;5055732;28;20519;-58
2023/10/28 06:44:43;;;;;;;1.87;0.93;;;11.80;99.90;;;;;;5055488;28;20955;-58
2023/10/28 06:47:10;;;;;;;2.17;0.93;;;11.80;99.90;;;;;;5055779;28;20536;-58
2023/10/28 06:49:38;;;;;;;1.17;0.90;;;11.70;99.90;;;;;;5055756;28;20446;-58
2023/10/28 06:52:05;;;;;;;1.77;1.40;;;11.70;99.90;;;;;;5055588;28;20465;-58
2023/10/28 06:54:32;;;;;;;2.60;1.10;;;11.80;99.90;;;;;;5055423;28;20477;-58
2023/10/28 06:56:59;;;;;;;2.63;1.10;;;11.90;99.90;;;;;;5055603;28;20446;-58
2023/10/28 06:59:26;;;;;;;5.13;0.90;;;11.90;99.90;;;;;;5055359;28;20936;-58
2023/10/28 07:01:52;;;;;;;1.90;0.90;;;12.00;99.90;;;;;;5055415;28;20473;-58
2023/10/28 07:04:22;;;;;;;1.13;0.80;;;12.00;99.90;;;;;;5055158;28;20458;-58
2023/10/28 07:06:50;;;;;;;1.20;0.87;;;12.00;99.90;;;;;;5055383;28;20460;-58
2023/10/28 07:09:18;;;;;;;9.30;1.10;;;12.00;99.90;;;;;;5055371;28;20446;-58
2023/10/28 07:11:44;;;;;;;2.60;1.07;;;12.10;99.90;;;;;;5055278;28;20524;-58
2023/10/28 07:14:11;;;;;;;2.20;1.10;;;12.10;99.90;;;;;;5055087;28;20438;-59
2023/10/28 07:16:38;;;;;;;2.90;1.13;;;12.10;99.90;;;;;;5055219;28;20456;-58
2023/10/28 07:19:04;;;;;;;1.33;1.00;;;12.20;99.90;;;;;;5055165;28;20516;-58
2023/10/28 07:21:31;;;;;;;1.83;1.73;;;12.20;99.90;;;;;;5055073;28;20473;-58
2023/10/28 07:24:00;;;;;;;9.93;1.10;;;12.10;99.90;;;;;;5055076;28;20452;-58
2023/10/28 07:26:29;;;;;;;2.77;0.60;;;12.10;99.90;;;;;;5054736;28;21034;-58
2023/10/28 07:28:56;;;;;;;2.67;0.80;;;12.10;99.90;;;;;;5054940;28;20453;-58
2023/10/28 07:31:23;;;;;;;1.07;0.97;;;12.20;99.90;;;;;;5054312;28;20915;-58
2023/10/28 07:33:49;;;;;;;2.10;0.60;;;12.20;99.90;;;;;;5054890;28;20456;-58
2023/10/28 07:36:16;;;;;;;1.40;0.80;;;12.30;99.90;;;;;;5054868;28;20477;-59
2023/10/28 07:38:43;;;;;;;1.90;0.90;;;12.30;99.90;;;;;;5054948;28;20442;-59
2023/10/28 07:41:11;;;;;;;2.70;0.50;;;12.40;99.90;;;;;;5054994;28;20469;-59
2023/10/28 07:43:37;;;;;;;3.70;0.77;;;12.40;99.90;;;;;;5054902;28;20438;-59
2023/10/28 07:46:04;;;;;;;1.20;0.77;;;12.40;99.90;;;;;;5054474;28;20446;-58
2023/10/28 07:48:31;;;;;;;2.53;1.03;;;12.40;99.90;;;;;;5054699;28;20452;-58
2023/10/28 07:50:59;;;;;;;0.90;0.80;;;12.50;99.90;;;;;;5054188;28;20472;-58
2023/10/28 07:53:26;;;;;;;2.20;1.00;;;12.50;99.90;;;;;;5054566;28;20550;-59
2023/10/28 07:55:53;;;;;;;0.87;0.67;;;12.50;99.90;;;;;;5054480;28;20478;-59
2023/10/28 07:58:21;;;;;;;3.50;0.83;;;12.60;99.90;;;;;;5054569;28;20441;-58
2023/10/28 08:00:47;;;;;;;1.17;1.00;;;12.60;99.90;;;;;;5053826;28;20461;-58
2023/10/28 08:03:17;;;;;;;1.43;0.90;;;12.60;99.90;;;;;;5054012;28;20958;-58
2023/10/28 08:05:44;;;;;;;2.77;0.70;;;12.60;99.90;;;;;;5054848;28;20430;-58
2023/10/28 08:08:11;;;;;;;1.80;0.70;;;12.60;99.90;;;;;;5054334;28;20534;-58
2023/10/28 08:10:39;;;;;;;1.90;0.77;;;12.60;99.90;;;;;;5054024;28;20548;-59
2023/10/28 08:13:06;;;;;;;2.53;0.83;;;12.70;99.90;;;;;;5054237;28;20496;-59
2023/10/28 08:15:34;;;;;;;0.80;0.80;;;12.70;99.90;;;;;;5054067;28;20482;-58
2023/10/28 08:18:01;;;;;;;2.30;0.87;;;12.80;99.90;;;;;;5054165;28;20446;-58
2023/10/28 08:20:28;;;;;;;3.80;0.90;;;12.80;99.90;;;;;;5053692;28;20968;-58
2023/10/28 08:22:56;;;;;;;2.90;0.83;;;12.80;99.90;;;;;;5054010;28;20821;-58
2023/10/28 08:25:23;;;;;;;1.00;0.90;;;12.80;99.90;;;;;;5053946;28;20445;-58
2023/10/28 08:27:50;;;;;;;3.77;1.37;;;12.80;99.90;;;;;;5054730;28;20477;-58
2023/10/28 08:30:17;;;;;;;2.73;0.87;;;12.80;99.90;;;;;;5053549;28;21014;-58
2023/10/28 08:32:46;;;;;;;1.03;0.93;;;12.80;99.90;;;;;;5053765;28;20450;-58
2023/10/28 08:35:13;;;;;;;2.30;1.37;;;12.80;99.90;;;;;;5053758;28;20838;-58
2023/10/28 08:37:40;;;;;;;2.30;1.00;;;12.90;99.90;;;;;;5053687;28;20447;-58
2023/10/28 08:40:11;;;;;;;2.30;0.87;;;12.90;99.90;;;;;;5053396;28;20978;-58
2023/10/28 08:42:38;;;;;;;4.43;1.37;;;12.90;99.90;;;;;;5053095;28;20460;-58
2023/10/28 08:45:07;;;;;;;1.53;0.93;;;13.00;99.90;;;;;;5053632;28;20515;-58
2023/10/28 08:47:38;;;;;;;1.70;1.03;;;13.10;99.90;;;;;;5054032;28;20541;-58
2023/10/28 08:50:07;;;;;;;2.80;1.23;;;13.10;99.90;;;;;;5053568;28;20426;-58
2023/10/28 08:52:37;;;;;;;1.77;1.10;;;13.10;99.90;;;;;;5053129;28;20988;-58
2023/10/28 08:55:04;;;;;;;4.53;1.20;;;13.10;99.90;;;;;;5053079;28;20477;-58
2023/10/28 08:57:34;;;;;;;2.17;1.30;;;12.90;99.90;;;;;;5053122;28;20481;-58
2023/10/28 09:00:02;;;;;;;3.60;1.03;;;12.90;99.90;;;;;;5053355;28;20513;-59
2023/10/28 09:02:31;;;;;;;2.40;0.60;;;13.00;99.90;;;;;;5053277;28;20472;-59
2023/10/28 09:04:57;;;;;;;3.33;0.80;;;13.00;99.90;;;;;;5053017;28;20465;-59
2023/10/28 09:07:25;;;;;;;2.00;0.97;;;13.10;99.90;;;;;;5053368;28;20445;-59
2023/10/28 09:10:00;;;;;;;1.60;1.00;;;13.20;99.90;;;;;;5052950;28;20940;-59
2023/10/28 09:12:26;;;;;;;1.13;0.80;;;13.40;99.90;;;;;;5053185;28;20465;-59
2023/10/28 09:14:53;;;;;;;1.83;0.77;;;13.60;99.90;;;;;;5053136;28;20446;-59
2023/10/28 09:17:20;;;;;;;3.33;2.20;;;13.70;99.90;;;;;;5053228;28;20444;-59
2023/10/28 09:19:47;;;;;;;2.63;1.00;;;13.80;99.90;;;;;;5053111;28;20477;-59
2023/10/28 09:22:14;;;;;;;1.60;0.73;;;14.00;99.90;;;;;;5053110;28;20473;-58
2023/10/28 09:24:45;;;;;;;1.47;0.70;;;14.10;99.90;;;;;;5053104;28;20446;-58
2023/10/28 09:27:12;;;;;;;2.07;1.00;;;14.30;99.90;;;;;;5052853;28;20904;-58
2023/10/28 09:29:41;;;;;;;1.40;0.70;;;14.40;99.90;;;;;;5053162;28;20480;-58
2023/10/28 09:32:09;;;;;;;6.60;1.23;;;14.50;99.90;;;;;;5053011;28;20466;-59
2023/10/28 09:34:37;;;;;;;3.77;0.90;;;14.50;99.90;;;;;;5053102;28;20438;-59
2023/10/28 09:37:05;;;;;;;2.20;0.80;;;14.50;99.90;;;;;;5052937;28;20488;-59
2023/10/28 09:39:33;;;;;;;4.63;0.97;;;14.40;99.90;;;;;;5053485;28;20962;-59
2023/10/28 09:42:02;;;;;;;2.50;0.93;;;14.40;99.90;;;;;;5052870;28;20458;-59
2023/10/28 09:44:29;;;;;;;4.53;0.90;;;14.40;99.90;;;;;;5052951;28;20441;-59
2023/10/28 09:47:02;;;;;;;3.87;1.50;;;14.50;99.90;;;;;;5052651;28;20966;-59
2023/10/28 09:49:30;;;;;;;3.20;1.00;;;14.40;99.90;;;;;;5053007;28;20422;-59
2023/10/28 09:52:00;;;;;;;5.43;1.20;;;14.60;99.90;;;;;;5052514;28;20458;-59
2023/10/28 09:54:30;;;;;;;7.80;1.20;;;14.60;99.90;;;;;;5054225;28;20482;-59
2023/10/28 09:57:00;;;;;;;3.03;0.90;;;14.80;99.90;;;;;;5056762;28;20472;-59
2023/10/28 09:59:30;;;;;;;3.13;0.80;;;14.90;99.90;;;;;;5056718;28;20516;-59
2023/10/28 10:02:13;;;;;;;3.03;0.77;;;15.00;99.90;;;;;;5056293;28;20967;-59
2023/10/28 10:04:43;;;;;;;3.13;0.80;;;15.20;99.70;;;;;;5056299;28;20460;-59
2023/10/28 10:07:10;;;;;;;5.10;1.10;;;15.50;99.50;;;;;;5056569;28;20426;-59
2023/10/28 10:09:41;;;;;;;3.63;1.33;;;15.70;98.90;;;;;;5056483;28;20459;-59
2023/10/28 10:12:07;;;;;;;3.60;0.70;;;15.80;98.00;;;;;;5056426;28;20473;-59
2023/10/28 10:14:38;;;;;;;1.53;1.13;;;16.00;97.50;;;;;;5056412;28;20473;-59
2023/10/28 10:17:18;;;;;;;3.53;1.00;;;16.20;97.30;;;;;;5056321;28;20536;-59
2023/10/28 10:19:45;;;;;;;4.40;2.07;;;16.40;96.40;;;;;;5056069;28;20825;-60
2023/10/28 10:22:12;;;;;;;6.33;1.43;;;16.80;95.90;;;;;;5056152;28;20470;-59
2023/10/28 10:24:49;;;;;;;3.70;0.80;;;17.30;94.40;;;;;;5055996;28;20939;-59
2023/10/28 10:27:16;;;;;;;1.90;0.80;;;17.80;92.90;;;;;;5056278;28;20458;-59
2023/10/28 10:29:44;;;;;;;4.50;1.20;;;18.30;91.60;;;;;;5055883;28;20809;-59
2023/10/28 10:32:18;;;;;;;4.37;1.40;;;18.60;89.00;;;;;;5056139;28;20461;-59
2023/10/28 10:34:46;;;;;;;4.30;1.50;;;18.70;87.90;;;;;;5056111;28;20441;-59
2023/10/28 10:37:23;;;;;;;5.40;1.60;;;18.60;85.70;;;;;;5056004;28;20517;-59
2023/10/28 10:39:49;;;;;;;8.00;2.30;;;18.40;81.70;;;;;;5056061;28;20433;-59
2023/10/28 10:42:16;;;;;;;6.33;2.10;;;18.10;80.70;;;;;;5055964;28;20466;-60
2023/10/28 10:44:44;;;;;;;7.77;1.90;;;17.80;81.70;;;;;;5056122;28;20453;-60
2023/10/28 10:47:12;;;;;;;5.70;1.47;;;17.60;81.70;;;;;;5055954;28;20438;-59
2023/10/28 10:49:40;;;;;;;13.83;2.70;;;17.40;82.20;;;;;;5055744;28;20449;-59
2023/10/28 10:52:08;;;;;;;5.07;2.07;;;17.20;83.70;;;;;;5055795;28;20556;-59
2023/10/28 10:54:36;;;;;;;4.90;1.83;;;17.00;85.40;;;;;;5055879;28;20469;-59
2023/10/28 10:57:04;;;;;;;7.47;2.07;;;16.80;85.30;;;;;;5055696;28;20538;-59
2023/10/28 10:59:34;;;;;;;10.97;2.03;;;16.80;86.60;;;;;;5055524;28;20966;-59
2023/10/28 11:02:03;;;;;;;5.00;1.60;;;16.70;87.00;;;;;;5055651;28;20464;-59
2023/10/28 11:04:30;;;;;;;7.90;1.70;;;16.70;88.00;;;;;;5055148;28;20457;-59
2023/10/28 11:06:57;;;;;;;8.53;1.60;;;16.70;88.10;;;;;;5055376;28;20442;-59
2023/10/28 11:09:24;;;;;;;7.37;1.67;;;16.80;86.90;;;;;;5055412;28;20452;-59
2023/10/28 11:11:51;;;;;;;9.07;1.90;;;16.90;87.10;;;;;;5055444;28;20504;-59
2023/10/28 11:14:18;;;;;;;9.77;2.07;;;17.10;85.00;;;;;;5055385;28;20453;-60
2023/10/28 11:16:45;;;;;;;7.33;1.97;;;17.20;85.20;;;;;;5055293;28;20485;-59
2023/10/28 11:19:13;;;;;;;4.57;1.50;;;17.60;86.40;;;;;;5055297;28;20448;-59
2023/10/28 11:21:41;;;;;;;7.53;1.80;;;18.30;82.10;;;;;;5055197;28;20465;-59
2023/10/28 11:24:08;;;;;;;6.20;1.93;;;18.70;79.10;;;;;;5054995;28;20959;-59
2023/10/28 11:26:36;;;;;;;9.80;1.90;;;18.90;78.80;;;;;;5054947;28;21034;-59
2023/10/28 11:29:04;;;;;;;6.30;2.00;;;19.20;75.70;;;;;;5055104;28;20555;-59
2023/10/28 11:31:31;;;;;;;7.10;1.87;;;19.70;74.30;;;;;;5054738;28;20477;-59
2023/10/28 11:33:58;;;;;;;4.83;1.53;;;20.10;70.80;;;;;;5054755;28;20967;-59
2023/10/28 11:36:30;;;;;;;5.90;1.73;;;20.50;69.20;;;;;;5055036;28;20484;-59
2023/10/28 11:38:57;;;;;;;11.23;2.40;;;20.90;66.70;;;;;;5055934;28;20513;-60
2023/10/28 11:41:24;;;;;;;8.03;2.60;;;21.10;65.80;;;;;;5054747;28;20458;-60
2023/10/28 11:43:52;;;;;;;3.63;1.97;;;21.50;63.90;;;;;;5054881;28;20441;-60
2023/10/28 11:46:20;;;;;;;7.03;2.10;;;22.00;62.90;;;;;;5054745;28;20446;-60
2023/10/28 11:48:47;;;;;;;7.03;1.60;;;22.50;60.10;;;;;;5054666;28;20488;-59
2023/10/28 11:51:13;;;;;;;4.47;1.73;;;22.80;58.70;;;;;;5054299;28;21001;-60
2023/10/28 11:53:47;;;;;;;4.93;1.70;;;22.80;57.80;;;;;;5054180;28;20994;-59
2023/10/28 11:56:15;;;;;;;4.47;1.73;;;22.80;56.90;;;;;;5054476;28;20544;-60
2023/10/28 11:58:42;;;;;;;6.10;2.40;;;22.70;56.80;;;;;;5054511;28;20452;-60
2023/10/28 12:01:09;;;;;;;6.57;2.00;;;22.30;56.80;;;;;;5055137;28;20481;-60
2023/10/28 12:03:36;;;;;;;6.40;2.13;;;21.90;57.80;;;;;;5053861;28;20832;-59
2023/10/28 12:06:03;;;;;;;5.40;2.27;;;21.80;59.20;;;;;;5054063;28;20442;-59
2023/10/28 12:08:30;;;;;;;7.47;1.73;;;21.80;59.40;;;;;;5054258;28;20445;-60
2023/10/28 12:10:58;;;;;;;10.43;2.87;;;21.60;58.60;;;;;;5054231;28;20466;-59
2023/10/28 12:13:27;;;;;;;7.23;2.13;;;21.40;59.10;;;;;;5054201;28;20536;-60
2023/10/28 12:15:54;;;;;;;11.80;2.00;;;21.00;59.70;;;;;;5053617;28;20453;-60
2023/10/28 12:18:21;;;;;;;7.43;1.83;;;20.90;60.50;;;;;;5053343;28;20486;-59
2023/10/28 12:20:48;;;;;;;4.30;1.73;;;21.00;59.90;;;;;;5053936;28;20480;-60
2023/10/28 12:23:16;;;;;;;3.87;1.40;;;20.80;60.30;;;;;;5053700;28;20958;-59
2023/10/28 12:25:43;;;;;;;6.90;2.03;;;20.50;60.70;;;;;;5054021;28;20445;-59
2023/10/28 12:28:11;;;;;;;5.87;2.07;;;20.10;62.30;;;;;;5053872;28;20445;-59
2023/10/28 12:30:37;;;;;;;5.30;1.90;;;19.70;63.70;;;;;;5053488;28;20843;-60
2023/10/28 12:33:04;;;;;;;6.20;1.77;;;19.50;65.40;;;;;;5053850;28;20453;-60
2023/10/28 12:35:31;;;;;;;7.73;1.97;;;19.20;65.60;;;;;;5053804;28;20437;-59
2023/10/28 12:37:57;;;;;;;8.70;1.80;;;18.90;67.80;;;;;;5053702;28;20488;-59
2023/10/28 12:40:26;;;;;;;12.33;2.70;;;18.70;69.00;;;;;;5053616;28;20449;-59
2023/10/28 12:42:53;;;;;;;6.30;1.90;;;18.50;71.70;;;;;;5053365;28;20481;-59
2023/10/28 12:45:21;;;;;;;6.40;2.13;;;18.40;71.70;;;;;;5053632;28;20448;-59
2023/10/28 12:47:49;;;;;;;10.17;1.73;;;18.30;72.70;;;;;;5053611;28;20793;-59